createdAt,value
2023-02-18T00:00:20.181Z,96538.97
2023-02-18T00:03:06.270Z,96542.03
2023-02-18T00:05:52.693Z,96522.44
2023-02-18T00:08:39.301Z,96522.84
2023-02-18T00:11:25.610Z,96527.31
2023-02-18T00:14:13.894Z,96511.09
2023-02-18T00:16:59.920Z,96534.75
2023-02-18T00:19:45.523Z,96526.91
2023-02-18T00:22:31.431Z,96513.75
2023-02-18T00:25:17.445Z,96509.25
2023-02-18T00:28:03.385Z,96510.28
2023-02-18T00:30:49.240Z,96495.00
2023-02-18T00:33:35.042Z,96510.53
2023-02-18T00:36:22.262Z,96516.00
2023-02-18T00:39:10.066Z,96504.75
2023-02-18T00:41:55.928Z,96521.13
2023-02-18T00:44:41.742Z,96509.94
2023-02-18T00:47:27.783Z,96512.25
2023-02-18T00:50:13.730Z,96512.88
2023-02-18T00:52:59.658Z,96486.50
2023-02-18T00:55:47.992Z,96499.97
2023-02-18T00:58:34.848Z,96478.50
2023-02-18T01:01:23.283Z,96507.88
2023-02-18T01:04:09.270Z,96482.94
2023-02-18T01:06:54.961Z,96498.31
2023-02-18T01:09:40.763Z,96509.09
2023-02-18T01:12:26.825Z,96506.50
2023-02-18T01:15:15.970Z,96507.75
2023-02-18T01:18:01.919Z,96514.16
2023-02-18T01:20:48.549Z,96493.00
2023-02-18T01:23:35.765Z,96506.44
2023-02-18T01:26:21.704Z,96503.22
2023-02-18T01:29:07.580Z,96489.19
2023-02-18T01:31:53.492Z,96510.66
2023-02-18T01:34:39.847Z,96505.44
2023-02-18T01:37:25.702Z,96497.28
2023-02-18T01:40:13.542Z,96512.94
2023-02-18T01:42:59.707Z,96513.47
2023-02-18T01:45:51.697Z,96522.38
2023-02-18T01:48:48.246Z,96522.63
2023-02-18T01:51:37.469Z,96468.50
2023-02-18T01:54:35.124Z,96498.75
2023-02-18T01:57:23.558Z,96508.84
2023-02-18T02:00:17.028Z,96523.63
2023-02-18T02:03:05.513Z,96532.31
2023-02-18T02:05:51.466Z,96531.22
2023-02-18T02:08:37.295Z,96531.72
2023-02-18T02:11:33.230Z,96537.03
2023-02-18T02:14:55.668Z,96524.81
2023-02-18T02:17:49.012Z,96526.97
2023-02-18T02:20:53.178Z,96505.69
2023-02-18T02:24:11.909Z,96523.28
2023-02-18T02:27:10.484Z,96523.75
2023-02-18T02:29:56.197Z,96530.09
2023-02-18T02:32:58.624Z,96517.69
2023-02-18T02:36:06.009Z,96519.38
2023-02-18T02:39:19.135Z,96518.78
2023-02-18T02:42:05.293Z,96532.34
2023-02-18T02:45:06.427Z,96532.03
2023-02-18T02:47:57.106Z,96526.34
2023-02-18T02:51:18.412Z,96536.94
2023-02-18T02:54:23.625Z,96543.72
2023-02-18T02:57:13.873Z,96549.38
2023-02-18T03:00:13.608Z,96546.00
2023-02-18T03:03:21.027Z,96531.69
2023-02-18T03:06:20.005Z,96519.44
2023-02-18T03:09:34.657Z,96558.81
2023-02-18T03:12:23.420Z,96535.94
2023-02-18T03:15:09.359Z,96552.63
2023-02-18T03:18:03.793Z,96541.69
2023-02-18T03:21:05.729Z,96537.25
2023-02-18T03:24:21.111Z,96553.84
2023-02-18T03:27:14.611Z,96533.66
2023-02-18T03:30:15.200Z,96547.25
2023-02-18T03:33:04.612Z,96529.34
2023-02-18T03:35:51.300Z,96548.94
2023-02-18T03:38:42.623Z,96548.22
2023-02-18T03:41:29.227Z,96549.66
2023-02-18T03:44:15.697Z,96546.28
2023-02-18T03:47:01.628Z,96524.75
2023-02-18T03:49:47.458Z,96533.75
2023-02-18T03:52:36.662Z,96526.69
2023-02-18T03:55:22.891Z,96561.09
2023-02-18T03:58:08.908Z,96542.06
2023-02-18T04:00:54.786Z,96549.66
2023-02-18T04:03:40.492Z,96557.84
2023-02-18T04:06:26.482Z,96530.53
2023-02-18T04:09:12.387Z,96531.38
2023-02-18T04:11:58.106Z,96548.44
2023-02-18T04:14:44.348Z,96545.59
2023-02-18T04:17:30.379Z,96560.75
2023-02-18T04:20:16.785Z,96544.84
2023-02-18T04:23:02.674Z,96523.56
2023-02-18T04:25:48.821Z,96518.97
2023-02-18T04:28:34.639Z,96535.94
2023-02-18T04:31:20.497Z,96507.91
2023-02-18T04:34:06.750Z,96530.88
2023-02-18T04:36:52.567Z,96529.81
2023-02-18T04:39:38.299Z,96535.25
2023-02-18T04:42:24.355Z,96543.19
2023-02-18T04:45:10.168Z,96542.38
2023-02-18T04:47:55.937Z,96539.59
2023-02-18T04:50:42.259Z,96528.69
2023-02-18T04:53:28.118Z,96538.03
2023-02-18T04:56:13.999Z,96532.53
2023-02-18T04:58:59.863Z,96542.28
2023-02-18T05:01:45.684Z,96538.31
2023-02-18T05:04:31.813Z,96532.06
2023-02-18T05:07:17.999Z,96547.09
2023-02-18T05:10:04.075Z,96537.72
2023-02-18T05:12:50.107Z,96548.91
2023-02-18T05:15:35.887Z,96538.31
2023-02-18T05:18:21.478Z,96555.66
2023-02-18T05:21:07.405Z,96554.22
2023-02-18T05:23:53.216Z,96541.47
2023-02-18T05:26:39.157Z,96536.03
2023-02-18T05:29:25.208Z,96556.84
2023-02-18T05:32:11.106Z,96564.19
2023-02-18T05:34:57.121Z,96569.59
2023-02-18T05:37:42.768Z,96561.41
2023-02-18T05:40:28.624Z,96565.63
2023-02-18T05:43:14.720Z,96565.50
2023-02-18T05:46:00.697Z,96550.81
2023-02-18T05:48:46.504Z,96566.59
2023-02-18T05:51:32.154Z,96574.88
2023-02-18T05:54:18.000Z,96567.53
2023-02-18T05:57:04.169Z,96563.44
2023-02-18T05:59:50.287Z,96558.00
2023-02-18T06:02:36.938Z,96558.47
2023-02-18T06:05:23.036Z,96537.09
2023-02-18T06:08:08.773Z,96574.38
2023-02-18T06:10:55.023Z,96568.50
2023-02-18T06:13:40.898Z,96558.75
2023-02-18T06:16:26.748Z,96558.38
2023-02-18T06:19:12.983Z,96534.22
2023-02-18T06:21:58.964Z,96553.22
2023-02-18T06:24:44.826Z,96560.19
2023-02-18T06:27:30.761Z,96550.69
2023-02-18T06:30:16.557Z,96554.06
2023-02-18T06:33:04.702Z,96547.69
2023-02-18T06:35:59.460Z,96565.34
2023-02-18T06:38:46.171Z,96559.44
2023-02-18T06:41:32.233Z,96553.91
2023-02-18T06:44:18.065Z,96550.78
2023-02-18T06:47:04.166Z,96550.06
2023-02-18T06:49:50.145Z,96542.81
2023-02-18T06:52:38.122Z,96554.34
2023-02-18T06:55:23.958Z,96530.41
2023-02-18T06:58:10.881Z,96553.84
2023-02-18T07:00:57.190Z,96550.72
2023-02-18T07:03:43.152Z,96546.13
2023-02-18T07:06:28.898Z,96556.19
2023-02-18T07:09:14.834Z,96558.38
2023-02-18T07:12:00.674Z,96557.16
2023-02-18T07:14:46.624Z,96543.25
2023-02-18T07:17:32.454Z,96531.41
2023-02-18T07:20:19.308Z,96524.66
2023-02-18T07:23:05.156Z,96536.56
2023-02-18T07:25:51.216Z,96531.69
2023-02-18T07:28:37.097Z,96546.13
2023-02-18T07:31:23.168Z,96536.81
2023-02-18T07:34:09.726Z,96513.91
2023-02-18T07:36:55.863Z,96522.34
2023-02-18T07:39:43.193Z,96518.63
2023-02-18T07:42:29.100Z,96509.72
2023-02-18T07:45:15.643Z,96521.22
2023-02-18T07:48:02.042Z,96523.09
2023-02-18T07:50:47.988Z,96501.00
2023-02-18T07:53:33.822Z,96508.91
2023-02-18T07:56:19.856Z,96501.69
2023-02-18T07:59:06.043Z,96519.25
2023-02-18T08:01:52.042Z,96521.94
2023-02-18T08:04:38.389Z,96528.78
2023-02-18T08:07:24.123Z,96512.31
2023-02-18T08:10:10.141Z,96504.78
2023-02-18T08:12:56.108Z,96517.94
2023-02-18T08:15:42.287Z,96513.59
2023-02-18T08:18:28.100Z,96511.78
2023-02-18T08:21:15.005Z,96496.53
2023-02-18T08:24:01.002Z,96513.81
2023-02-18T08:26:59.817Z,96507.78
2023-02-18T08:29:46.373Z,96508.03
2023-02-18T08:32:32.542Z,96464.72
2023-02-18T08:35:18.698Z,96494.59
2023-02-18T08:38:04.928Z,96504.59
2023-02-18T08:40:51.711Z,96486.63
2023-02-18T08:43:37.894Z,96483.91
2023-02-18T08:46:25.281Z,96509.59
2023-02-18T08:49:21.149Z,96494.75
2023-02-18T08:52:07.413Z,96488.19
2023-02-18T08:54:53.890Z,96499.16
2023-02-18T08:57:40.423Z,96490.75
2023-02-18T09:00:27.240Z,96486.41
2023-02-18T09:03:14.471Z,96481.28
2023-02-18T09:06:00.555Z,96483.91
2023-02-18T09:08:46.797Z,96471.91
2023-02-18T09:11:33.084Z,96447.28
2023-02-18T09:14:19.199Z,96461.97
2023-02-18T09:17:05.050Z,96473.03
2023-02-18T09:19:50.877Z,96466.75
2023-02-18T09:22:36.869Z,96476.53
2023-02-18T09:25:22.921Z,96463.19
2023-02-18T09:28:08.572Z,96450.81
2023-02-18T09:30:54.766Z,96477.59
2023-02-18T09:33:45.684Z,96463.72
2023-02-18T09:36:32.400Z,96455.38
2023-02-18T09:39:20.153Z,96459.56
2023-02-18T09:42:08.601Z,96448.84
2023-02-18T09:44:56.674Z,96465.25
2023-02-18T09:47:43.918Z,96450.16
2023-02-18T09:50:33.576Z,96442.28
2023-02-18T09:53:20.187Z,96438.91
2023-02-18T09:56:07.319Z,96418.84
2023-02-18T09:58:54.381Z,96449.09
2023-02-18T10:01:41.833Z,96422.47
2023-02-18T10:04:39.991Z,96435.38
2023-02-18T10:07:33.700Z,96433.97
2023-02-18T10:10:31.859Z,96412.88
2023-02-18T10:13:21.828Z,96425.31
2023-02-18T10:16:09.844Z,96411.69
2023-02-18T10:18:58.407Z,96393.75
2023-02-18T10:21:45.594Z,96392.00
2023-02-18T10:24:44.822Z,96393.88
2023-02-18T10:27:33.109Z,96402.47
2023-02-18T10:30:37.868Z,96395.31
2023-02-18T10:33:32.760Z,96385.41
2023-02-18T10:36:37.412Z,96383.22
2023-02-18T10:39:33.128Z,96376.41
2023-02-18T10:42:37.768Z,96375.09
2023-02-18T10:45:37.765Z,96380.31
2023-02-18T10:49:05.874Z,96362.06
2023-02-18T10:51:55.173Z,96354.16
2023-02-18T10:54:58.071Z,96349.47
2023-02-18T10:57:52.294Z,96324.47
2023-02-18T11:00:39.820Z,96340.03
2023-02-18T11:03:36.714Z,96333.81
2023-02-18T11:06:32.074Z,96338.56
2023-02-18T11:09:47.979Z,96337.16
2023-02-18T11:12:49.407Z,96340.88
2023-02-18T11:15:35.949Z,96330.81
2023-02-18T11:18:44.358Z,96325.88
2023-02-18T11:21:35.497Z,96321.31
2023-02-18T11:24:22.116Z,96317.50
2023-02-18T11:27:13.562Z,96312.19
2023-02-18T11:30:07.345Z,96293.22
2023-02-18T11:33:00.667Z,96285.84
2023-02-18T11:35:51.850Z,96292.34
2023-02-18T11:38:44.899Z,96292.63
2023-02-18T11:41:40.448Z,96282.00
2023-02-18T11:44:26.349Z,96268.56
2023-02-18T11:47:15.068Z,96283.56
2023-02-18T11:50:15.653Z,96271.34
2023-02-18T11:53:31.774Z,96271.19
2023-02-18T11:56:20.309Z,96270.44
2023-02-18T11:59:07.245Z,96265.47
2023-02-18T12:01:59.329Z,96263.81
2023-02-18T12:04:59.477Z,96266.28
2023-02-18T12:07:55.257Z,96259.50
2023-02-18T12:10:44.843Z,96255.19
2023-02-18T12:13:37.052Z,96248.94
2023-02-18T12:16:41.552Z,96255.38
2023-02-18T12:19:40.621Z,96244.41
2023-02-18T12:22:42.061Z,96230.31
2023-02-18T12:25:45.119Z,96235.94
2023-02-18T12:28:43.027Z,96237.13
2023-02-18T12:31:53.203Z,96227.66
2023-02-18T12:35:03.802Z,96239.94
2023-02-18T12:37:56.631Z,96232.72
2023-02-18T12:40:51.487Z,96218.84
2023-02-18T12:44:19.213Z,96215.63
2023-02-18T12:47:05.044Z,96207.94
2023-02-18T12:50:12.933Z,96186.06
2023-02-18T12:53:07.820Z,96214.16
2023-02-18T12:56:12.277Z,96200.28
2023-02-18T12:59:20.898Z,96190.63
2023-02-18T13:02:22.372Z,96190.19
2023-02-18T13:05:37.546Z,96188.38
2023-02-18T13:08:23.462Z,96181.78
2023-02-18T13:11:32.651Z,96181.34
2023-02-18T13:14:24.810Z,96158.97
2023-02-18T13:17:11.587Z,96178.53
2023-02-18T13:20:24.044Z,96172.13
2023-02-18T13:23:19.757Z,96159.03
2023-02-18T13:26:07.139Z,96156.16
2023-02-18T13:29:02.340Z,96159.06
2023-02-18T13:32:08.045Z,96159.69
2023-02-18T13:35:09.501Z,96158.25
2023-02-18T13:38:04.204Z,96145.81
2023-02-18T13:40:50.676Z,96144.16
2023-02-18T13:43:36.768Z,96148.75
2023-02-18T13:46:24.129Z,96148.53
2023-02-18T13:49:15.742Z,96143.53
2023-02-18T13:52:03.493Z,96146.44
2023-02-18T13:54:51.521Z,96147.69
2023-02-18T13:57:39.405Z,96147.06
2023-02-18T14:00:35.860Z,96137.25
2023-02-18T14:03:30.839Z,96128.66
2023-02-18T14:07:03.080Z,96137.59
2023-02-18T14:09:49.357Z,96140.88
2023-02-18T14:12:38.513Z,96143.34
2023-02-18T14:15:24.311Z,96127.94
2023-02-18T14:18:13.509Z,96129.88
2023-02-18T14:21:22.430Z,96132.44
2023-02-18T14:24:11.706Z,96115.81
2023-02-18T14:27:09.533Z,96107.94
2023-02-18T14:29:55.772Z,96119.78
2023-02-18T14:32:42.194Z,96111.28
2023-02-18T14:35:53.435Z,96113.81
2023-02-18T14:39:04.021Z,96107.81
2023-02-18T14:42:04.097Z,96117.78
2023-02-18T14:45:00.554Z,96125.03
2023-02-18T14:48:01.472Z,96120.28
2023-02-18T14:50:50.342Z,96104.47
2023-02-18T14:53:43.005Z,96120.47
2023-02-18T14:56:29.138Z,96112.41
2023-02-18T14:59:15.511Z,96107.63
2023-02-18T15:02:01.803Z,96086.25
2023-02-18T15:04:48.031Z,96102.00
2023-02-18T15:07:34.113Z,96086.06
2023-02-18T15:10:20.221Z,96096.84
2023-02-18T15:13:10.079Z,96097.47
2023-02-18T15:16:02.670Z,96101.81
2023-02-18T15:18:54.515Z,96097.47
2023-02-18T15:21:43.430Z,96113.03
2023-02-18T15:24:34.771Z,96111.75
2023-02-18T15:27:23.175Z,96105.50
2023-02-18T15:30:22.404Z,96105.84
2023-02-18T15:33:12.022Z,96103.38
2023-02-18T15:36:07.715Z,96102.69
2023-02-18T15:38:54.300Z,96103.50
2023-02-18T15:41:40.579Z,96110.97
2023-02-18T15:44:29.517Z,96111.34
2023-02-18T15:47:17.471Z,96105.13
2023-02-18T15:50:04.409Z,96112.56
2023-02-18T15:52:50.906Z,96109.03
2023-02-18T15:55:41.695Z,96085.72
2023-02-18T15:58:33.135Z,96095.44
2023-02-18T16:01:29.538Z,96106.00
2023-02-18T16:04:15.987Z,96105.38
2023-02-18T16:07:18.979Z,96104.47
2023-02-18T16:10:14.945Z,96110.28
2023-02-18T16:13:01.393Z,96102.38
2023-02-18T16:15:50.294Z,96091.06
2023-02-18T16:18:40.950Z,96102.84
2023-02-18T16:21:34.326Z,96106.91
2023-02-18T16:24:26.512Z,96110.97
2023-02-18T16:27:17.292Z,96099.38
2023-02-18T16:30:15.963Z,96088.97
2023-02-18T16:33:01.932Z,96108.88
2023-02-18T16:35:50.221Z,96101.72
2023-02-18T16:38:36.621Z,96112.06
2023-02-18T16:41:22.360Z,96109.78
2023-02-18T16:44:14.116Z,96106.72
2023-02-18T16:46:59.979Z,96110.63
2023-02-18T16:49:47.347Z,96107.94
2023-02-18T16:52:33.257Z,96113.72
2023-02-18T16:55:22.579Z,96125.50
2023-02-18T16:58:08.706Z,96123.38
2023-02-18T17:00:55.014Z,96110.53
2023-02-18T17:03:41.288Z,96128.63
2023-02-18T17:06:27.829Z,96130.66
2023-02-18T17:09:23.386Z,96121.88
2023-02-18T17:12:09.648Z,96120.47
2023-02-18T17:14:55.585Z,96127.38
2023-02-18T17:17:41.500Z,96131.28
2023-02-18T17:20:29.106Z,96116.28
2023-02-18T17:23:22.370Z,96127.94
2023-02-18T17:26:16.220Z,96122.69
2023-02-18T17:29:02.513Z,96113.06
2023-02-18T17:31:50.548Z,96127.44
2023-02-18T17:34:41.073Z,96118.81
2023-02-18T17:37:29.746Z,96120.56
2023-02-18T17:40:18.205Z,96135.75
2023-02-18T17:43:04.215Z,96130.94
2023-02-18T17:45:52.811Z,96110.13
2023-02-18T17:48:39.897Z,96125.47
2023-02-18T17:51:28.023Z,96126.03
2023-02-18T17:54:19.508Z,96121.41
2023-02-18T17:57:05.876Z,96114.19
2023-02-18T17:59:51.600Z,96114.56
2023-02-18T18:02:37.564Z,96108.28
2023-02-18T18:05:24.364Z,96121.06
2023-02-18T18:08:10.633Z,96119.31
2023-02-18T18:10:59.776Z,96131.63
2023-02-18T18:13:46.571Z,96126.25
2023-02-18T18:16:32.730Z,96110.53
2023-02-18T18:19:18.596Z,96130.06
2023-02-18T18:22:08.624Z,96124.22
2023-02-18T18:25:00.889Z,96130.59
2023-02-18T18:27:47.319Z,96116.44
2023-02-18T18:30:35.729Z,96126.16
2023-02-18T18:33:27.230Z,96122.28
2023-02-18T18:36:13.473Z,96130.22
2023-02-18T18:38:59.639Z,96139.09
2023-02-18T18:41:45.990Z,96137.81
2023-02-18T18:44:31.900Z,96138.81
2023-02-18T18:47:17.939Z,96133.06
2023-02-18T18:50:04.146Z,96149.66
2023-02-18T18:52:51.525Z,96145.66
2023-02-18T18:55:38.814Z,96150.81
2023-02-18T18:58:25.772Z,96155.72
2023-02-18T19:01:17.574Z,96139.88
2023-02-18T19:04:04.065Z,96151.91
2023-02-18T19:06:49.893Z,96131.25
2023-02-18T19:09:35.800Z,96150.69
2023-02-18T19:12:21.725Z,96153.38
2023-02-18T19:15:09.714Z,96147.59
2023-02-18T19:17:56.750Z,96149.56
2023-02-18T19:20:43.070Z,96142.78
2023-02-18T19:23:29.215Z,96145.31
2023-02-18T19:26:16.914Z,96158.47
2023-02-18T19:29:03.467Z,96161.44
2023-02-18T19:31:50.769Z,96158.88
2023-02-18T19:34:37.167Z,96149.06
2023-02-18T19:37:24.698Z,96159.06
2023-02-18T19:40:13.475Z,96149.06
2023-02-18T19:42:59.437Z,96151.00
2023-02-18T19:45:47.039Z,96148.41
2023-02-18T19:48:33.136Z,96157.09
2023-02-18T19:51:21.425Z,96160.41
2023-02-18T19:54:07.590Z,96161.16
2023-02-18T19:56:53.461Z,96164.13
2023-02-18T19:59:40.500Z,96159.28
2023-02-18T20:02:27.600Z,96152.94
2023-02-18T20:05:14.190Z,96167.53
2023-02-18T20:08:00.028Z,96157.66
2023-02-18T20:10:46.042Z,96160.97
2023-02-18T20:13:32.206Z,96154.31
2023-02-18T20:16:18.460Z,96161.16
2023-02-18T20:19:04.728Z,96158.00
2023-02-18T20:21:51.578Z,96168.38
2023-02-18T20:24:39.652Z,96166.22
2023-02-18T20:27:25.971Z,96167.59
2023-02-18T20:30:12.358Z,96181.81
2023-02-18T20:32:58.444Z,96168.66
2023-02-18T20:35:44.660Z,96159.28
2023-02-18T20:38:31.521Z,96156.84
2023-02-18T20:41:19.025Z,96172.16
2023-02-18T20:44:05.649Z,96171.69
2023-02-18T20:46:52.082Z,96162.56
2023-02-18T20:49:38.538Z,96162.06
2023-02-18T20:52:24.702Z,96155.00
2023-02-18T20:55:10.902Z,96166.53
2023-02-18T20:57:57.182Z,96165.25
2023-02-18T21:00:43.548Z,96176.31
2023-02-18T21:03:30.686Z,96182.63
2023-02-18T21:06:19.564Z,96176.13
2023-02-18T21:09:06.204Z,96162.63
2023-02-18T21:11:52.316Z,96179.00
2023-02-18T21:14:38.263Z,96182.69
2023-02-18T21:17:24.120Z,96187.53
2023-02-18T21:20:10.400Z,96188.56
2023-02-18T21:22:56.462Z,96188.72
2023-02-18T21:25:42.340Z,96194.56
2023-02-18T21:28:28.080Z,96193.44
2023-02-18T21:31:19.498Z,96198.78
2023-02-18T21:34:06.989Z,96183.75
2023-02-18T21:36:53.278Z,96198.81
2023-02-18T21:39:39.181Z,96196.31
2023-02-18T21:42:25.168Z,96190.78
2023-02-18T21:45:16.937Z,96197.66
2023-02-18T21:48:22.302Z,96196.13
2023-02-18T21:51:08.598Z,96198.53
2023-02-18T21:53:54.649Z,96183.47
2023-02-18T21:56:40.527Z,96185.63
2023-02-18T21:59:28.069Z,96180.47
2023-02-18T22:02:23.145Z,96191.69
2023-02-18T22:05:09.959Z,96174.28
2023-02-18T22:07:56.594Z,96185.47
2023-02-18T22:10:42.416Z,96175.63
2023-02-18T22:13:28.538Z,96178.50
2023-02-18T22:16:14.708Z,96183.31
2023-02-18T22:19:00.559Z,96176.47
2023-02-18T22:21:46.683Z,96173.78
2023-02-18T22:24:32.894Z,96175.09
2023-02-18T22:27:19.550Z,96177.09
2023-02-18T22:30:06.321Z,96177.81
2023-02-18T22:32:52.229Z,96173.97
2023-02-18T22:35:37.872Z,96168.94
2023-02-18T22:38:23.697Z,96170.97
2023-02-18T22:41:11.980Z,96182.66
2023-02-18T22:44:01.233Z,96177.84
2023-02-18T22:46:47.545Z,96143.63
2023-02-18T22:49:33.722Z,96163.50
2023-02-18T22:52:19.996Z,96157.34
2023-02-18T22:55:06.204Z,96165.66
2023-02-18T22:57:52.327Z,96161.50
2023-02-18T23:00:38.261Z,96142.31
2023-02-18T23:03:24.058Z,96160.69
2023-02-18T23:06:10.086Z,96142.19
2023-02-18T23:08:56.581Z,96150.50
2023-02-18T23:11:42.686Z,96161.09
2023-02-18T23:14:30.584Z,96158.91
2023-02-18T23:17:19.504Z,96165.25
2023-02-18T23:20:06.075Z,96170.13
2023-02-18T23:22:51.962Z,96161.94
2023-02-18T23:25:37.825Z,96166.31
2023-02-18T23:28:23.639Z,96141.88
2023-02-18T23:31:10.062Z,96162.13
2023-02-18T23:33:58.639Z,96150.41
2023-02-18T23:36:46.007Z,96150.25
2023-02-18T23:39:32.126Z,96164.31
2023-02-18T23:42:18.044Z,96161.78
2023-02-18T23:45:04.032Z,96152.59
2023-02-18T23:47:50.116Z,96150.25
2023-02-18T23:50:35.996Z,96150.94
2023-02-18T23:53:25.787Z,96147.06
2023-02-18T23:56:18.939Z,96144.41
2023-02-18T23:59:05.635Z,96136.53
